Time;durP1;ratioP1;P1;durP2;ratioP2;P2;SDS_P1;SDS_P2;PMS_P1;PMS_P2;Temp;Humidity;BMP_temperature;BMP_pressure;BME280_temperature;BME280_humidity;BME280_pressure;Samples;Min_cycle;Max_cycle;Signal;HPM_P1;HPM_P2
2023/09/14 00:00:20;;;;;;;10.82;7.45;;;;;;;21.46;74.53;100888.38;4990809;28;20106;-82
2023/09/14 00:02:45;;;;;;;19.02;9.13;;;;;;;21.41;74.74;100895.44;4989888;28;20569;-83
2023/09/14 00:05:11;;;;;;;17.88;8.18;;;;;;;21.38;74.89;100890.34;4990608;28;20480;-81
2023/09/14 00:07:37;;;;;;;12.18;7.80;;;;;;;21.21;75.34;100867.81;4990436;28;20023;-83
2023/09/14 00:10:03;;;;;;;14.77;7.90;;;;;;;21.28;75.44;100890.66;4991035;28;20061;-84
2023/09/14 00:12:29;;;;;;;15.82;8.75;;;;;;;21.31;75.49;100883.94;4991153;28;20022;-81
2023/09/14 00:14:54;;;;;;;13.13;7.32;;;;;;;21.32;75.56;100891.09;4991778;28;20490;-81
2023/09/14 00:17:20;;;;;;;15.70;8.07;;;;;;;21.33;75.73;100884.59;4991201;28;20033;-83
2023/09/14 00:19:45;;;;;;;14.75;7.28;;;;;;;21.33;75.55;100879.97;4991537;28;20038;-81
2023/09/14 00:22:11;;;;;;;20.05;8.68;;;;;;;21.28;75.81;100874.22;4990603;28;20130;-82
2023/09/14 00:24:36;;;;;;;25.88;8.43;;;;;;;21.16;75.71;100854.66;4990306;28;20042;-81
2023/09/14 00:27:03;;;;;;;14.85;7.60;;;;;;;21.24;75.52;100880.25;4990802;28;20372;-82
2023/09/14 00:29:29;;;;;;;15.80;8.25;;;;;;;21.27;75.72;100885.34;4989992;28;20041;-83
2023/09/14 00:31:54;;;;;;;18.27;8.50;;;;;;;21.08;75.67;100864.81;4990576;28;20034;-83
2023/09/14 00:34:19;;;;;;;11.80;8.20;;;;;;;21.04;76.08;100868.97;4990451;28;20026;-81
2023/09/14 00:36:45;;;;;;;11.05;8.40;;;;;;;21.15;76.16;100882.22;4990483;28;20081;-82
2023/09/14 00:39:10;;;;;;;19.35;9.05;;;;;;;21.11;76.27;100878.16;4990147;28;20034;-83
2023/09/14 00:41:36;;;;;;;17.38;9.32;;;;;;;21.09;76.66;100866.56;4989828;28;20483;-78
2023/09/14 00:44:02;;;;;;;19.60;9.02;;;;;;;21.00;76.37;100867.66;4989214;28;20041;-82
2023/09/14 00:46:27;;;;;;;17.77;8.75;;;;;;;21.05;76.52;100877.00;4989697;28;20051;-78
2023/09/14 00:48:53;;;;;;;13.05;8.65;;;;;;;21.00;76.74;100871.25;4990230;28;20095;-83
2023/09/14 00:51:19;;;;;;;16.90;9.18;;;;;;;21.00;76.57;100878.59;4989659;28;20626;-81
2023/09/14 00:53:45;;;;;;;16.02;8.23;;;;;;;20.87;76.90;100861.97;4989703;28;20557;-82
2023/09/14 00:56:11;;;;;;;15.73;10.30;;;;;;;20.97;76.98;100876.22;4971474;28;20042;-81
2023/09/14 00:58:37;;;;;;;18.90;9.05;;;;;;;20.92;77.19;100876.78;4989478;28;20030;-81
2023/09/14 01:01:03;;;;;;;20.75;9.68;;;;;;;20.92;77.38;100878.66;4989680;28;20026;-81
2023/09/14 01:03:30;;;;;;;17.77;9.07;;;;;;;20.89;77.32;100868.09;4989350;28;20069;-81
2023/09/14 01:05:57;;;;;;;26.77;10.38;;;;;;;20.80;77.40;100850.06;4970603;28;20794;-82
2023/09/14 01:08:22;;;;;;;20.05;9.98;;;;;;;20.86;77.57;100866.56;4989600;28;20118;-81
2023/09/14 01:10:48;;;;;;;21.80;9.20;;;;;;;20.81;77.84;100881.84;4989721;28;20097;-80
2023/09/14 01:13:47;;;;;;;17.63;8.95;;;;;;;20.64;78.13;100843.72;4988159;28;20037;-83
2023/09/14 01:16:21;;;;;;;16.35;8.60;;;;;;;20.79;78.00;100862.06;4989211;28;20026;-82
2023/09/14 01:18:55;;;;;;;22.05;10.88;;;;;;;20.72;78.05;100847.41;4972442;28;20112;-81
2023/09/14 01:21:45;;;;;;;17.80;9.55;;;;;;;20.79;78.15;100867.53;4989186;28;20729;-82
2023/09/14 01:24:38;;;;;;;18.92;8.18;;;;;;;20.79;77.99;100859.31;4971769;28;20076;-80
2023/09/14 01:27:05;;;;;;;13.27;8.27;;;;;;;20.73;78.10;100849.97;4989407;28;20418;-81
2023/09/14 01:29:30;;;;;;;11.45;8.82;;;;;;;20.79;77.93;100865.66;4989307;28;20042;-81
2023/09/14 01:31:56;;;;;;;23.40;8.32;;;;;;;20.64;77.98;100857.38;4989343;28;20023;-83
2023/09/14 01:34:21;;;;;;;25.80;8.77;;;;;;;20.72;78.24;100869.28;4992038;28;20089;-80
2023/09/14 01:36:53;;;;;;;18.98;8.52;;;;;;;20.73;78.03;100869.13;4998203;28;20038;-81
2023/09/14 01:39:20;;;;;;;13.83;8.57;;;;;;;20.45;78.23;100824.25;4991000;28;20030;-83
2023/09/14 01:41:47;;;;;;;14.07;8.30;;;;;;;20.70;78.40;100883.16;4989589;28;20029;-80
2023/09/14 01:44:12;;;;;;;11.20;8.38;;;;;;;20.64;78.56;100871.03;4989584;28;20034;-79
2023/09/14 01:46:39;;;;;;;14.77;8.38;;;;;;;20.67;78.37;100871.72;4988991;28;20058;-82
2023/09/14 01:49:05;;;;;;;13.98;7.20;;;;;;;20.62;78.59;100864.06;4989057;28;20081;-82
2023/09/14 01:51:30;;;;;;;23.65;10.05;;;;;;;20.66;78.42;100867.28;4988183;28;20034;-78
2023/09/14 01:53:56;;;;;;;21.15;8.50;;;;;;;20.50;78.48;100839.06;4988502;28;20038;-81
2023/09/14 01:56:21;;;;;;;17.02;8.23;;;;;;;20.62;78.62;100854.00;4989332;28;20081;-79
2023/09/14 01:58:46;;;;;;;15.27;9.20;;;;;;;20.68;78.36;100870.69;4989096;28;20037;-80
2023/09/14 02:01:12;;;;;;;15.38;8.18;;;;;;;20.61;78.56;100859.63;4989314;28;20033;-82
2023/09/14 02:03:38;;;;;;;10.77;7.80;;;;;;;20.59;78.69;100875.38;4989245;28;20027;-81
2023/09/14 02:06:03;;;;;;;21.60;10.90;;;;;;;20.55;78.87;100869.41;4988533;28;20030;-82
2023/09/14 02:08:30;;;;;;;21.45;8.73;;;;;;;20.57;79.31;100878.31;4988825;28;20040;-81
2023/09/14 02:10:56;;;;;;;16.13;9.18;;;;;;;20.53;79.47;100860.56;4989188;28;20066;-81
2023/09/14 02:13:21;;;;;;;16.50;10.57;;;;;;;20.56;79.04;100865.66;4970602;28;20072;-80
2023/09/14 02:15:47;;;;;;;15.40;8.75;;;;;;;20.60;79.17;100875.19;4988304;28;20037;-83
2023/09/14 02:18:12;;;;;;;19.23;8.52;;;;;;;20.61;79.06;100868.69;4988835;28;20034;-80
2023/09/14 02:20:38;;;;;;;18.83;9.60;;;;;;;20.61;79.16;100865.94;4988802;28;20030;-82
2023/09/14 02:23:04;;;;;;;17.92;9.07;;;;;;;20.61;78.99;100868.69;4989334;28;20486;-84
2023/09/14 02:25:30;;;;;;;18.50;10.52;;;;;;;20.62;78.96;100870.41;4990902;28;20037;-82
2023/09/14 02:27:55;;;;;;;14.07;8.98;;;;;;;20.62;78.98;100864.94;4992381;28;20868;-84
2023/09/14 02:30:21;;;;;;;18.85;9.40;;;;;;;20.58;79.06;100862.72;4992888;28;20126;-82
2023/09/14 02:32:46;;;;;;;14.95;9.25;;;;;;;20.55;79.00;100853.00;4993294;28;20097;-81
2023/09/14 02:35:12;;;;;;;18.58;8.95;;;;;;;20.60;78.89;100845.13;4993102;28;20113;-83
2023/09/14 02:37:37;;;;;;;14.48;8.45;;;;;;;20.57;79.12;100850.13;4992594;28;20479;-79
2023/09/14 02:40:06;;;;;;;15.45;8.65;;;;;;;20.57;79.06;100850.97;4992875;28;20514;-82
2023/09/14 02:42:34;;;;;;;25.83;11.23;;;;;;;20.52;79.27;100858.84;4992535;28;20189;-79
2023/09/14 02:44:59;;;;;;;24.40;10.65;;;;;;;20.50;79.46;100855.47;4993061;28;20121;-83
2023/09/14 02:47:25;;;;;;;13.35;8.93;;;;;;;20.49;79.43;100856.50;4992641;28;20515;-82
2023/09/14 02:49:50;;;;;;;17.38;9.00;;;;;;;20.46;79.42;100854.13;4993347;28;20031;-78
2023/09/14 02:52:15;;;;;;;25.17;10.40;;;;;;;20.43;79.55;100857.22;4995132;28;20058;-80
2023/09/14 02:54:41;;;;;;;19.10;9.98;;;;;;;20.35;79.76;100840.91;4963182;29;20515;-84
2023/09/14 02:57:06;;;;;;;39.92;11.10;;;;;;;20.42;80.03;100852.81;4970855;28;20043;-78
2023/09/14 02:59:32;;;;;;;18.73;9.35;;;;;;;20.42;80.13;100858.28;4978219;28;20047;-76
2023/09/14 03:01:57;;;;;;;16.58;9.15;;;;;;;20.36;80.15;100845.34;4978321;28;20031;-76
2023/09/14 03:04:23;;;;;;;19.80;9.73;;;;;;;20.39;80.17;100853.19;4977571;29;20104;-80
2023/09/14 03:06:48;;;;;;;20.45;9.43;;;;;;;20.40;80.14;100849.38;4976339;29;20038;-80
2023/09/14 03:09:14;;;;;;;28.40;11.30;;;;;;;20.47;80.35;100858.56;4969981;29;20071;-81
2023/09/14 03:11:39;;;;;;;19.33;9.75;;;;;;;20.43;80.14;100861.81;4952310;29;20411;-81
2023/09/14 03:14:04;;;;;;;17.02;9.77;;;;;;;20.44;80.23;100867.13;4951348;29;20039;-81
2023/09/14 03:16:30;;;;;;;29.50;10.48;;;;;;;20.47;80.19;100865.91;4952477;29;20070;-84
2023/09/14 03:18:55;;;;;;;24.45;10.55;;;;;;;20.47;80.21;100860.44;4956881;29;20047;-81
2023/09/14 03:21:28;;;;;;;28.35;10.43;;;;;;;20.47;80.05;100861.28;4936443;29;20120;-80
2023/09/14 03:23:53;;;;;;;15.43;9.10;;;;;;;20.47;79.93;100866.75;4925675;29;20051;-80
2023/09/14 03:26:19;;;;;;;23.92;9.38;;;;;;;20.41;80.16;100856.56;4956207;29;20126;-82
2023/09/14 03:28:49;;;;;;;19.40;10.20;;;;;;;20.48;80.37;100870.34;4950995;29;20138;-81
2023/09/14 03:31:15;;;;;;;33.47;12.90;;;;;;;20.41;80.05;100851.09;4956999;28;20042;-81
2023/09/14 03:33:40;;;;;;;21.15;9.40;;;;;;;20.39;80.07;100841.38;4991827;28;20913;-82
2023/09/14 03:36:06;;;;;;;17.63;10.90;;;;;;;20.30;79.72;100837.88;4990752;28;20560;-80
2023/09/14 03:38:31;;;;;;;31.65;12.40;;;;;;;20.46;79.76;100865.06;4992036;28;20030;-81
2023/09/14 03:40:57;;;;;;;41.03;11.95;;;;;;;20.47;79.76;100864.03;4991526;28;20023;-81
2023/09/14 03:43:22;;;;;;;27.88;11.20;;;;;;;20.39;79.82;100857.78;4991710;28;20133;-83
2023/09/14 03:45:48;;;;;;;18.33;9.82;;;;;;;20.50;79.89;100866.41;4991619;28;20058;-83
2023/09/14 03:48:13;;;;;;;26.92;10.98;;;;;;;20.36;79.99;100844.50;4991407;28;20038;-81
2023/09/14 03:50:39;;;;;;;23.90;9.85;;;;;;;20.48;80.02;100871.19;4990963;28;20145;-82
2023/09/14 03:53:05;;;;;;;27.98;10.75;;;;;;;20.25;80.19;100834.78;4974645;28;20033;-80
2023/09/14 03:55:31;;;;;;;33.20;12.27;;;;;;;20.42;80.56;100871.94;4998501;28;20026;-83
2023/09/14 03:57:57;;;;;;;28.27;10.50;;;;;;;20.40;80.99;100865.78;4994691;28;20030;-85
2023/09/14 04:00:23;;;;;;;38.10;12.82;;;;;;;20.48;81.17;100871.19;4975637;28;20045;-87
2023/09/14 04:02:49;;;;;;;36.92;10.70;;;;;;;20.51;81.34;100873.56;4992780;28;20456;-87
2023/09/14 04:05:17;;;;;;;107.20;17.58;;;;;;;20.49;81.17;100869.28;4993020;28;20034;-88
2023/09/14 04:07:44;;;;;;;54.88;13.90;;;;;;;20.56;80.90;100871.13;4993344;28;20037;-79
2023/09/14 04:10:10;;;;;;;37.72;13.60;;;;;;;20.59;81.03;100876.22;4992949;28;20037;-86
2023/09/14 04:12:40;;;;;;;55.47;12.15;;;;;;;20.64;80.98;100871.03;4974823;28;20124;-90
2023/09/14 04:15:06;;;;;;;33.28;11.52;;;;;;;20.69;80.62;100865.03;4992560;28;20036;-90
2023/09/14 04:17:33;;;;;;;41.88;11.60;;;;;;;20.78;80.46;100868.53;4993627;28;20022;-91
2023/09/14 04:19:58;;;;;;;24.17;10.40;;;;;;;20.75;80.37;100869.78;4994424;28;20659;-91
2023/09/14 04:22:24;;;;;;;39.47;10.70;;;;;;;20.85;80.16;100875.84;4976078;28;20092;-85
2023/09/14 04:24:50;;;;;;;71.40;14.70;;;;;;;20.90;80.14;100878.00;4992467;28;20026;-85
2023/09/14 04:27:15;;;;;;;52.17;13.65;;;;;;;21.01;79.97;100869.34;4992802;28;20037;-86
2023/09/14 04:29:41;;;;;;;74.35;15.05;;;;;;;21.07;79.55;100876.78;4993273;28;20117;-88
2023/09/14 04:32:06;;;;;;;78.28;15.93;;;;;;;21.14;79.29;100869.56;4993155;28;20030;-85
2023/09/14 04:34:32;;;;;;;71.10;16.95;;;;;;;21.22;79.03;100869.50;4994366;28;20054;-89
2023/09/14 04:36:58;;;;;;;85.28;17.25;;;;;;;21.10;78.69;100840.88;4986809;28;20795;-90
2023/09/14 04:39:23;;;;;;;54.45;16.45;;;;;;;21.33;78.26;100870.91;4938936;28;20050;-89
2023/09/14 04:41:49;;;;;;;119.30;19.77;;;;;;;21.26;78.43;100862.59;4986196;28;20384;-86
2023/09/14 04:44:14;;;;;;;96.68;19.05;;;;;;;21.29;78.76;100861.38;4990919;28;20039;-83
2023/09/14 04:46:40;;;;;;;61.30;17.63;;;;;;;21.41;78.85;100877.13;4990927;28;20523;-83
2023/09/14 04:49:06;;;;;;;77.00;16.73;;;;;;;21.44;78.79;100876.75;4990301;28;20032;-83
2023/09/14 04:51:32;;;;;;;64.18;16.52;;;;;;;21.38;78.37;100843.81;4974389;28;20552;-85
2023/09/14 04:53:58;;;;;;;72.80;15.65;;;;;;;21.62;78.51;100885.44;4991531;28;20836;-86
2023/09/14 04:56:23;;;;;;;89.38;15.80;;;;;;;21.69;78.58;100880.91;4993060;28;20487;-85
2023/09/14 04:58:49;;;;;;;110.40;19.13;;;;;;;21.80;78.51;100885.06;4991793;28;20026;-87
2023/09/14 05:01:14;;;;;;;85.40;15.25;;;;;;;21.90;78.33;100882.03;4992594;28;20023;-86
2023/09/14 05:03:40;;;;;;;65.93;14.60;;;;;;;21.66;77.65;100818.31;4991475;28;20490;-88
2023/09/14 05:06:06;;;;;;;27.70;11.63;;;;;;;21.97;78.03;100861.03;4992713;28;20034;-87
2023/09/14 05:08:31;;;;;;;52.60;13.95;;;;;;;22.03;78.64;100857.53;4997135;28;20027;-83
2023/09/14 05:10:58;;;;;;;60.58;12.85;;;;;;;22.21;78.36;100863.44;5009513;28;20038;-84
2023/09/14 05:13:24;;;;;;;83.68;16.35;;;;;;;22.33;77.94;100867.34;4992351;28;20045;-84
2023/09/14 05:15:50;;;;;;;31.50;10.90;;;;;;;22.40;77.62;100867.41;4995434;28;20027;-86
2023/09/14 05:18:15;;;;;;;32.05;11.30;;;;;;;22.47;77.55;100869.19;4991998;28;20041;-83
2023/09/14 05:20:44;;;;;;;43.90;13.32;;;;;;;22.56;77.03;100862.53;4990984;28;20027;-88
2023/09/14 05:23:10;;;;;;;40.97;13.85;;;;;;;22.72;76.54;100870.50;4991371;28;20034;-88
2023/09/14 05:25:36;;;;;;;34.88;10.27;;;;;;;22.73;76.00;100869.47;4991124;28;20030;-86
2023/09/14 05:28:01;;;;;;;32.70;9.77;;;;;;;22.74;75.84;100857.47;4991375;28;20026;-83
2023/09/14 05:30:27;;;;;;;51.78;10.32;;;;;;;22.89;75.36;100867.47;4990745;28;20042;-88
2023/09/14 05:32:52;;;;;;;16.00;8.40;;;;;;;22.97;75.39;100870.06;4991463;28;20027;-84
2023/09/14 05:35:18;;;;;;;38.95;9.60;;;;;;;22.97;75.05;100870.06;4992352;28;20045;-89
2023/09/14 05:37:44;;;;;;;18.42;8.20;;;;;;;23.08;74.92;100883.25;4990724;28;20022;-88
2023/09/14 05:40:11;;;;;;;14.98;8.40;;;;;;;22.98;74.40;100853.41;4990777;28;20569;-90
2023/09/14 05:42:39;;;;;;;18.02;7.93;;;;;;;23.16;74.47;100872.09;4980807;28;20034;-87
2023/09/14 05:45:06;;;;;;;24.92;9.27;;;;;;;23.17;74.55;100865.59;4990498;28;20026;-87
2023/09/14 05:47:32;;;;;;;23.98;7.95;;;;;;;23.12;74.42;100851.59;4990374;28;20039;-87
2023/09/14 05:49:57;;;;;;;24.52;8.05;;;;;;;23.25;74.33;100871.75;4989833;28;20023;-88
2023/09/14 05:52:23;;;;;;;21.40;8.40;;;;;;;23.26;74.12;100867.97;4989025;28;20496;-85
2023/09/14 05:54:49;;;;;;;27.27;7.85;;;;;;;23.28;73.88;100865.88;4990822;28;20034;-85
2023/09/14 05:57:14;;;;;;;17.98;7.35;;;;;;;23.13;74.29;100834.94;4991963;28;20466;-88
2023/09/14 05:59:40;;;;;;;22.42;7.45;;;;;;;23.20;74.08;100835.00;4989810;28;20538;-86
2023/09/14 06:02:06;;;;;;;23.48;8.15;;;;;;;23.27;73.98;100831.22;4977135;28;20394;-87
2023/09/14 06:04:32;;;;;;;13.85;7.40;;;;;;;23.44;73.53;100851.00;4990468;28;20042;-87
2023/09/14 06:06:58;;;;;;;14.23;7.22;;;;;;;23.48;73.77;100849.56;4991080;28;20034;-87
2023/09/14 06:09:25;;;;;;;30.40;7.15;;;;;;;23.57;73.45;100851.06;4989891;28;20038;-86
2023/09/14 06:11:51;;;;;;;36.08;8.15;;;;;;;23.59;73.22;100846.22;4991472;28;20035;-88
2023/09/14 06:14:16;;;;;;;22.40;8.45;;;;;;;23.68;73.38;100845.00;4992713;28;20036;-84
2023/09/14 06:16:42;;;;;;;22.10;8.05;;;;;;;23.74;73.37;100846.06;4992354;28;20042;-82
2023/09/14 06:19:07;;;;;;;37.70;8.38;;;;;;;23.85;73.16;100851.81;4971893;28;20092;-89
2023/09/14 06:21:34;;;;;;;22.02;7.22;;;;;;;23.94;73.01;100852.50;4973976;28;20034;-88
2023/09/14 06:23:59;;;;;;;16.30;8.23;;;;;;;23.93;73.56;100841.69;4991468;28;20433;-85
2023/09/14 06:26:29;;;;;;;19.42;8.13;;;;;;;24.09;73.26;100855.06;4989510;28;20118;-87
2023/09/14 06:28:58;;;;;;;21.23;8.85;;;;;;;23.99;73.60;100817.00;4977203;28;20500;-86
2023/09/14 06:31:23;;;;;;;138.98;23.65;;;;;;;24.07;72.88;100821.44;4973265;28;20212;-88
2023/09/14 06:33:49;;;;;;;29.77;10.15;;;;;;;24.25;72.99;100843.72;4990385;28;20474;-88
2023/09/14 06:36:18;;;;;;;18.35;7.32;;;;;;;24.27;73.12;100847.13;4988596;28;20038;-86
2023/09/14 06:38:44;;;;;;;23.13;6.88;;;;;;;24.14;73.19;100836.09;4972524;28;20034;-87
2023/09/14 06:41:10;;;;;;;21.23;7.47;;;;;;;24.25;72.64;100860.19;4971068;28;20487;-88
2023/09/14 06:43:35;;;;;;;26.67;7.40;;;;;;;24.28;72.68;100862.53;4971550;28;20093;-84
2023/09/14 06:46:01;;;;;;;12.68;7.38;;;;;;;24.29;72.32;100850.50;4971957;28;20126;-87
2023/09/14 06:48:26;;;;;;;26.17;6.45;;;;;;;24.30;72.38;100860.44;4970270;28;20398;-87
2023/09/14 06:50:51;;;;;;;29.73;7.97;;;;;;;24.34;72.74;100865.31;4986510;28;20096;-87
2023/09/14 06:53:17;;;;;;;17.05;6.90;;;;;;;24.30;72.49;100871.44;4972134;28;20027;-87
2023/09/14 06:55:42;;;;;;;14.15;6.43;;;;;;;24.38;72.52;100866.59;4987674;28;20027;-84
2023/09/14 06:58:08;;;;;;;16.85;7.07;;;;;;;24.38;72.32;100865.75;4992725;28;20038;-82
2023/09/14 07:00:35;;;;;;;14.65;6.18;;;;;;;24.47;72.30;100869.97;4987609;28;20023;-89
2023/09/14 07:03:02;;;;;;;22.95;7.18;;;;;;;24.45;72.37;100877.59;4970278;28;20676;-85
2023/09/14 07:05:29;;;;;;;22.58;7.95;;;;;;;24.37;72.83;100864.06;4987436;28;20208;-84
2023/09/14 07:07:55;;;;;;;15.80;7.07;;;;;;;24.39;72.95;100878.44;4994373;28;20088;-86
2023/09/14 07:10:20;;;;;;;14.35;7.00;;;;;;;24.46;73.05;100879.31;4990756;28;20117;-89
2023/09/14 07:12:46;;;;;;;18.75;6.13;;;;;;;24.47;72.56;100886.47;4991929;28;20118;-87
2023/09/14 07:15:11;;;;;;;21.92;6.85;;;;;;;24.51;72.58;100879.50;4992559;28;20026;-87
2023/09/14 07:17:36;;;;;;;18.15;6.93;;;;;;;24.59;71.42;100890.31;4992877;28;20037;-87
2023/09/14 07:20:04;;;;;;;16.45;7.05;;;;;;;24.58;70.90;100885.88;4992893;28;20035;-87
2023/09/14 07:22:30;;;;;;;20.50;7.15;;;;;;;24.59;71.23;100883.94;4993561;28;20429;-88
2023/09/14 07:24:55;;;;;;;9.98;5.93;;;;;;;24.57;71.44;100889.69;4993261;28;20026;-85
2023/09/14 07:27:22;;;;;;;22.98;7.15;;;;;;;24.56;71.70;100893.47;4990142;28;20581;-87
2023/09/14 07:29:48;;;;;;;47.85;10.38;;;;;;;24.59;71.73;100883.94;4992576;28;20022;-85
2023/09/14 07:32:14;;;;;;;26.15;11.43;;;;;;;24.61;70.95;100890.97;4993052;28;20030;-84
2023/09/14 07:34:39;;;;;;;22.85;7.47;;;;;;;24.57;71.63;100873.19;4989896;28;20038;-84
2023/09/14 07:37:05;;;;;;;20.52;7.00;;;;;;;24.55;71.52;100867.06;4991871;28;20023;-84
2023/09/14 07:39:30;;;;;;;19.02;7.72;;;;;;;24.76;71.67;100891.63;4988426;28;20027;-87
2023/09/14 07:41:56;;;;;;;14.90;6.50;;;;;;;24.74;71.86;100887.34;4993011;28;20026;-88
2023/09/14 07:44:22;;;;;;;12.85;6.38;;;;;;;24.65;71.57;100886.72;5011359;28;20042;-82
2023/09/14 07:46:48;;;;;;;12.13;6.10;;;;;;;24.67;71.83;100887.38;5013140;28;20084;-81
2023/09/14 07:49:13;;;;;;;19.55;7.45;;;;;;;24.62;71.59;100889.88;5012083;28;20041;-85
2023/09/14 07:51:39;;;;;;;14.15;8.10;;;;;;;24.75;71.63;100900.91;5004912;28;20086;-86
2023/09/14 07:54:04;;;;;;;30.88;7.18;;;;;;;24.79;71.62;100891.19;5004461;28;20038;-86
2023/09/14 07:56:30;;;;;;;17.08;8.00;;;;;;;24.85;71.64;100897.78;5004457;28;20036;-87
2023/09/14 07:58:56;;;;;;;12.05;5.65;;;;;;;24.76;71.02;100894.38;4995384;28;20030;-87
2023/09/14 08:01:22;;;;;;;15.43;6.80;;;;;;;24.72;71.02;100900.47;4978544;28;20022;-85
2023/09/14 08:03:48;;;;;;;20.85;7.03;;;;;;;24.61;71.67;100879.13;4993966;28;20442;-86
2023/09/14 08:06:15;;;;;;;14.02;6.15;;;;;;;24.67;71.33;100898.38;4993497;28;20073;-89
2023/09/14 08:08:40;;;;;;;22.10;6.60;;;;;;;24.84;71.10;100905.19;4992969;28;20022;-86
2023/09/14 08:11:06;;;;;;;22.02;7.60;;;;;;;24.83;70.97;100894.41;4992276;28;20412;-89
2023/09/14 08:13:32;;;;;;;26.13;7.13;;;;;;;24.88;70.98;100900.97;4992001;28;20031;-88
2023/09/14 08:16:02;;;;;;;39.30;8.43;;;;;;;24.92;71.26;100904.97;4991809;28;20052;-86
2023/09/14 08:18:28;;;;;;;8.48;6.13;;;;;;;24.86;71.49;100892.06;4992750;28;20030;-88
2023/09/14 08:20:53;;;;;;;14.07;6.95;;;;;;;24.82;72.03;100865.19;4991690;28;20038;-86
2023/09/14 08:23:20;;;;;;;18.67;7.28;;;;;;;25.09;71.28;100890.78;4996688;28;20160;-88
2023/09/14 08:25:46;;;;;;;12.77;8.60;;;;;;;25.02;70.46;100863.25;4992406;28;20034;-88
2023/09/14 08:28:19;;;;;;;11.68;6.80;;;;;;;25.11;68.90;100896.91;4974405;28;20037;-87
2023/09/14 08:30:44;;;;;;;30.50;7.95;;;;;;;24.79;69.52;100838.06;4990264;28;21184;-90
2023/09/14 08:33:11;;;;;;;16.98;7.47;;;;;;;25.21;69.32;100889.94;4992949;28;20022;-80
2023/09/14 08:35:37;;;;;;;20.25;7.43;;;;;;;25.31;68.94;100890.34;4992558;28;20066;-86
2023/09/14 08:38:07;;;;;;;17.85;5.80;;;;;;;25.33;69.06;100881.84;4975305;28;20106;-90
2023/09/14 08:41:00;;;;;;;15.73;6.32;;;;;;;25.39;69.03;100881.84;5000638;28;20061;-83
2023/09/14 08:43:26;;;;;;;22.55;8.00;;;;;;;25.38;69.10;100874.63;4986559;28;20054;-87
2023/09/14 08:45:52;;;;;;;23.08;7.40;;;;;;;25.46;68.03;100881.84;4990377;28;20046;-87
2023/09/14 08:48:23;;;;;;;16.08;6.28;;;;;;;25.53;67.37;100870.84;4996123;28;20407;-90
2023/09/14 08:50:52;;;;;;;22.02;6.97;;;;;;;25.40;67.18;100875.28;4991762;28;20035;-87
2023/09/14 08:53:17;;;;;;;21.77;6.45;;;;;;;25.47;68.30;100877.19;4992273;28;20073;-89
2023/09/14 08:55:43;;;;;;;15.73;6.22;;;;;;;25.32;68.44;100855.38;4991607;28;20034;-89
2023/09/14 08:58:11;;;;;;;19.70;7.88;;;;;;;25.59;69.53;100881.84;4973697;28;20097;-90
2023/09/14 09:00:37;;;;;;;12.85;6.57;;;;;;;25.59;68.31;100881.84;4991376;28;20457;-88
2023/09/14 09:03:02;;;;;;;19.70;7.10;;;;;;;25.56;67.85;100868.50;4991992;28;20562;-89
2023/09/14 09:05:28;;;;;;;20.00;6.13;;;;;;;25.53;67.27;100846.03;4991955;28;20035;-89
2023/09/14 09:07:55;;;;;;;20.55;6.55;;;;;;;25.57;67.28;100861.91;4956710;28;20042;-86
2023/09/14 09:10:26;;;;;;;16.45;6.28;;;;;;;25.48;65.78;100865.06;4991279;28;20027;-90
2023/09/14 09:13:02;;;;;;;21.70;6.28;;;;;;;25.46;66.72;100881.84;4991260;28;20104;-89
2023/09/14 09:15:29;;;;;;;19.85;10.43;;;;;;;25.52;66.75;100874.63;4991527;28;20487;-89
2023/09/14 09:18:02;;;;;;;14.65;6.80;;;;;;;25.51;67.38;100875.69;4988906;28;20097;-82
2023/09/14 09:20:27;;;;;;;19.88;8.00;;;;;;;25.54;66.30;100855.97;4988987;28;20026;-80
2023/09/14 09:22:57;;;;;;;15.32;6.32;;;;;;;25.68;65.58;100863.16;4988983;28;20038;-82
2023/09/14 09:25:23;;;;;;;13.80;6.43;;;;;;;25.90;66.13;100868.13;4988754;28;20085;-81
2023/09/14 09:27:57;;;;;;;7.85;5.45;;;;;;;25.80;65.69;100866.91;4989671;28;20061;-81
2023/09/14 09:30:32;;;;;;;14.02;6.18;;;;;;;25.68;66.06;100869.53;4989842;28;20413;-81
2023/09/14 09:32:58;;;;;;;28.67;6.93;;;;;;;25.85;66.77;100865.19;4975365;28;20038;-81
2023/09/14 09:35:26;;;;;;;22.83;6.25;;;;;;;25.83;65.87;100856.31;4969932;28;20037;-80
2023/09/14 09:37:54;;;;;;;19.77;7.55;;;;;;;25.80;65.91;100837.47;4970316;28;20510;-81
2023/09/14 09:40:27;;;;;;;20.10;8.68;;;;;;;26.05;65.90;100853.25;4970282;28;20141;-81
2023/09/14 09:42:54;;;;;;;11.15;5.50;;;;;;;25.96;65.59;100853.47;4969753;28;20019;-81
2023/09/14 09:45:23;;;;;;;11.95;5.65;;;;;;;25.89;65.67;100866.47;4969935;28;20049;-81
2023/09/14 09:47:49;;;;;;;14.15;6.30;;;;;;;25.88;65.45;100856.50;4969196;28;20098;-81
2023/09/14 09:50:19;;;;;;;17.00;6.85;;;;;;;25.77;67.19;100854.44;4970352;28;20031;-82
2023/09/14 09:52:46;;;;;;;19.95;6.85;;;;;;;25.95;67.11;100860.06;4970140;28;20113;-80
2023/09/14 09:55:25;;;;;;;14.85;6.00;;;;;;;26.01;66.37;100850.06;4969901;28;20038;-81
2023/09/14 09:57:59;;;;;;;15.02;6.32;;;;;;;26.14;65.40;100857.44;4969054;28;20033;-79
2023/09/14 10:00:34;;;;;;;19.63;6.03;;;;;;;26.17;65.58;100849.59;4935330;28;20042;-82
2023/09/14 10:03:01;;;;;;;37.30;7.70;;;;;;;26.23;65.90;100845.09;4969684;28;20518;-82
2023/09/14 10:05:31;;;;;;;22.55;6.13;;;;;;;26.22;63.61;100854.44;4969852;28;20054;-81
2023/09/14 10:07:58;;;;;;;13.27;5.97;;;;;;;26.13;63.80;100837.28;4969421;28;20037;-80
2023/09/14 10:10:28;;;;;;;11.52;5.57;;;;;;;26.13;64.85;100841.94;4969887;28;20102;-81
2023/09/14 10:12:55;;;;;;;20.20;6.40;;;;;;;26.19;64.53;100838.34;4977986;28;20427;-80
2023/09/14 10:15:24;;;;;;;15.05;6.60;;;;;;;26.08;65.50;100825.22;4971893;28;20541;-82
2023/09/14 10:17:53;;;;;;;30.90;7.05;;;;;;;26.15;65.41;100842.56;4989510;28;20121;-81
2023/09/14 10:20:19;;;;;;;17.75;6.40;;;;;;;26.16;65.32;100844.28;4990786;28;20415;-81
2023/09/14 10:22:46;;;;;;;15.80;5.97;;;;;;;26.30;64.12;100835.72;4990688;28;20088;-82
2023/09/14 10:25:12;;;;;;;23.42;6.80;;;;;;;26.30;64.57;100840.38;4990679;28;20023;-81
2023/09/14 10:27:39;;;;;;;12.10;5.85;;;;;;;26.31;64.77;100831.03;4961140;28;20047;-81
2023/09/14 10:30:08;;;;;;;25.70;6.00;;;;;;;26.36;64.01;100842.28;4936069;29;20126;-81
2023/09/14 10:32:39;;;;;;;14.82;6.28;;;;;;;26.49;64.38;100831.13;4934544;29;20107;-81
2023/09/14 10:35:05;;;;;;;18.50;6.72;;;;;;;26.37;64.71;100808.94;4918409;29;20047;-81
2023/09/14 10:37:31;;;;;;;22.27;5.78;;;;;;;26.56;65.15;100817.28;4929252;29;20043;-81
2023/09/14 10:39:58;;;;;;;21.83;5.53;;;;;;;26.60;64.13;100827.66;4928246;29;20043;-82
2023/09/14 10:42:24;;;;;;;15.57;5.95;;;;;;;26.32;63.25;100789.47;4928643;29;20035;-82
2023/09/14 10:44:50;;;;;;;10.77;5.30;;;;;;;26.48;63.09;100833.03;4928139;29;20424;-82
2023/09/14 10:47:20;;;;;;;12.25;6.03;;;;;;;26.29;63.20;100816.63;4931927;29;20464;-79
2023/09/14 10:49:48;;;;;;;11.68;5.65;;;;;;;26.38;64.39;100826.34;4933011;29;20047;-81
2023/09/14 10:52:23;;;;;;;12.70;5.65;;;;;;;26.27;64.62;100813.25;4932131;29;20027;-82
2023/09/14 10:54:49;;;;;;;20.65;6.90;;;;;;;26.46;64.79;100828.81;4933171;29;20032;-85
2023/09/14 10:57:25;;;;;;;26.00;6.78;;;;;;;26.54;64.99;100831.31;4937947;29;20168;-85
2023/09/14 10:59:55;;;;;;;10.77;6.07;;;;;;;26.47;64.00;100820.31;4933838;29;20144;-84
2023/09/14 11:02:39;;;;;;;16.75;5.95;;;;;;;26.64;63.36;100826.13;4975159;28;20061;-84
2023/09/14 11:05:13;;;;;;;19.55;7.22;;;;;;;26.50;62.74;100781.25;4992966;28;20088;-88
2023/09/14 11:07:41;;;;;;;11.20;5.90;;;;;;;26.81;62.70;100830.06;4993531;28;20022;-83
2023/09/14 11:10:09;;;;;;;20.70;6.57;;;;;;;26.59;62.99;100770.78;4992785;28;20042;-82
2023/09/14 11:12:35;;;;;;;29.67;7.47;;;;;;;26.81;64.01;100815.41;4991958;28;20065;-85